Time;durP1;ratioP1;P1;durP2;ratioP2;P2;SDS_P1;SDS_P2;PMS_P1;PMS_P2;Temp;Humidity;BMP_temperature;BMP_pressure;BME280_temperature;BME280_humidity;BME280_pressure;Samples;Min_cycle;Max_cycle;Signal;HPM_P1;HPM_P2
2024/04/25 00:00:39;;;;;;;;;24.33;20.00;;;;;;;;6490622;39;8970;-63
2024/04/25 00:06:40;;;;;;;;;22.00;22.00;;;;;;;;6490648;39;9031;-64
2024/04/25 00:12:41;;;;;;;;;25.00;23.00;;;;;;;;6489801;46;8920;-63
2024/04/25 00:18:42;;;;;;;;;22.50;22.50;;;;;;;;6489292;39;9022;-63
2024/04/25 00:24:44;;;;;;;;;23.50;23.50;;;;;;;;6491674;39;8924;-64
2024/04/25 00:30:47;;;;;;;;;27.25;26.75;;;;;;;;6491372;39;8900;-63
2024/04/25 00:36:49;;;;;;;;;34.50;32.50;;;;;;;;6492559;39;8939;-63
2024/04/25 00:42:50;;;;;;;;;32.75;30.50;;;;;;;;6491838;39;8966;-64
2024/04/25 00:48:52;;;;;;;;;40.00;35.00;;;;;;;;6491560;39;8938;-63
2024/04/25 00:54:54;;;;;;;;;32.67;32.67;;;;;;;;6491492;39;8892;-64
2024/04/25 01:00:57;;;;;;;;;27.67;24.67;;;;;;;;6491100;39;8955;-63
2024/04/25 01:07:01;;;;;;;;;25.00;24.50;;;;;;;;6491720;46;8943;-64
2024/04/25 01:13:02;;;;;;;;;28.00;27.67;;;;;;;;6491245;31;8896;-63
2024/04/25 01:19:03;;;;;;;;;32.50;29.75;;;;;;;;6491378;39;8908;-63
2024/04/25 01:25:07;;;;;;;;;29.00;27.67;;;;;;;;6491679;39;8940;-64
2024/04/25 01:31:09;;;;;;;;;33.00;28.67;;;;;;;;6535640;36;9077;-63
2024/04/25 01:37:10;;;;;;;;;30.00;29.00;;;;;;;;6490770;39;9889;-64
2024/04/25 01:43:12;;;;;;;;;30.33;27.00;;;;;;;;6490303;39;8982;-63
2024/04/25 01:49:15;;;;;;;;;34.00;30.75;;;;;;;;6491876;39;8911;-64
2024/04/25 01:55:16;;;;;;;;;31.75;28.25;;;;;;;;6490306;31;8900;-62
2024/04/25 02:01:17;;;;;;;;;32.33;27.67;;;;;;;;6490070;39;9024;-65
2024/04/25 02:07:18;;;;;;;;;31.50;30.50;;;;;;;;6490459;39;9075;-63
2024/04/25 02:13:19;;;;;;;;;31.33;30.00;;;;;;;;6490510;46;8969;-64
2024/04/25 02:19:20;;;;;;;;;29.75;28.75;;;;;;;;6490880;39;8896;-65
2024/04/25 02:25:22;;;;;;;;;29.00;26.00;;;;;;;;6490232;44;8894;-63
2024/04/25 02:31:30;;;;;;;;;34.75;33.75;;;;;;;;6491030;31;8922;-65
2024/04/25 02:37:32;;;;;;;;;33.00;33.00;;;;;;;;6490821;39;8991;-64
2024/04/25 02:43:33;;;;;;;;;29.67;28.00;;;;;;;;6490169;39;9415;-64
2024/04/25 02:49:35;;;;;;;;;28.50;24.25;;;;;;;;6490294;46;8951;-64
2024/04/25 02:55:36;;;;;;;;;35.33;31.00;;;;;;;;6490876;31;8958;-63
2024/04/25 03:01:38;;;;;;;;;34.25;30.75;;;;;;;;6489869;46;9115;-64
2024/04/25 03:07:38;;;;;;;;;36.50;33.00;;;;;;;;6489904;39;8952;-64
2024/04/25 03:13:40;;;;;;;;;30.33;27.67;;;;;;;;6490336;39;8935;-63
2024/04/25 03:19:44;;;;;;;;;33.67;32.00;;;;;;;;6490189;39;9554;-63
2024/04/25 03:25:45;;;;;;;;;34.75;32.75;;;;;;;;6490041;39;9012;-64
2024/04/25 03:31:48;;;;;;;;;32.75;32.50;;;;;;;;6490245;31;8903;-63
2024/04/25 03:37:49;;;;;;;;;38.00;35.25;;;;;;;;6489758;39;8900;-64
2024/04/25 03:43:51;;;;;;;;;36.25;34.50;;;;;;;;6489510;39;8978;-63
2024/04/25 03:49:52;;;;;;;;;39.25;35.00;;;;;;;;6490463;39;8904;-64
2024/04/25 03:55:55;;;;;;;;;41.25;35.00;;;;;;;;6491334;39;9722;-63
2024/04/25 04:02:02;;;;;;;;;27.33;25.00;;;;;;;;6469905;39;8979;-73
2024/04/25 04:08:06;;;;;;;;;37.00;34.33;;;;;;;;6493299;46;8969;-73
2024/04/25 04:14:12;;;;;;;;;29.00;26.33;;;;;;;;6494704;39;9074;-73
2024/04/25 04:20:15;;;;;;;;;29.00;27.50;;;;;;;;6494300;46;8866;-72
2024/04/25 04:26:16;;;;;;;;;32.33;27.33;;;;;;;;6493286;46;8906;-72
2024/04/25 04:32:18;;;;;;;;;35.25;31.00;;;;;;;;6493677;46;9052;-72
2024/04/25 04:38:22;;;;;;;;;29.50;27.00;;;;;;;;6495078;39;8901;-71
2024/04/25 04:44:26;;;;;;;;;27.00;24.67;;;;;;;;6494282;39;9068;-63
2024/04/25 04:50:28;;;;;;;;;29.67;28.33;;;;;;;;6495209;39;9013;-62
2024/04/25 04:56:30;;;;;;;;;28.33;27.67;;;;;;;;6492957;39;8974;-63
2024/04/25 05:02:35;;;;;;;;;35.00;29.00;;;;;;;;6489874;46;9083;-62
2024/04/25 05:08:41;;;;;;;;;28.33;27.33;;;;;;;;6494135;39;8922;-62
2024/04/25 05:14:46;;;;;;;;;31.00;30.33;;;;;;;;6493317;31;8862;-63
2024/04/25 05:20:52;;;;;;;;;32.75;31.00;;;;;;;;6495548;31;8897;-64
2024/04/25 05:26:58;;;;;;;;;30.00;26.00;;;;;;;;6493491;39;9550;-63
2024/04/25 05:33:05;;;;;;;;;31.67;25.67;;;;;;;;6493581;39;8918;-62
2024/04/25 05:39:09;;;;;;;;;33.00;30.00;;;;;;;;6403674;39;5002056;-63
2024/04/25 05:45:12;;;;;;;;;30.33;26.67;;;;;;;;6481294;39;8931;-63
2024/04/25 05:51:17;;;;;;;;;25.00;22.33;;;;;;;;6491335;46;8879;-64
2024/04/25 05:57:25;;;;;;;;;33.00;32.67;;;;;;;;6490455;39;8966;-64
2024/04/25 06:03:27;;;;;;;;;18.00;17.33;;;;;;;;6491491;46;8997;-63
2024/04/25 06:09:29;;;;;;;;;38.00;35.00;;;;;;;;6491473;31;8864;-61
2024/04/25 06:15:32;;;;;;;;;25.67;24.33;;;;;;;;6491313;39;8953;-63
2024/04/25 06:21:38;;;;;;;;;19.67;19.00;;;;;;;;6492239;31;9035;-63
2024/04/25 06:27:45;;;;;;;;;17.00;16.33;;;;;;;;6489949;46;8946;-63
2024/04/25 06:33:49;;;;;;;;;16.67;15.33;;;;;;;;6492014;39;8930;-64
2024/04/25 06:39:56;;;;;;;;;24.00;21.00;;;;;;;;6489374;46;8908;-63
2024/04/25 06:45:58;;;;;;;;;22.67;22.33;;;;;;;;6519520;36;9528;-62
2024/04/25 06:52:12;;;;;;;;;25.67;21.67;;;;;;;;6488717;39;9138;-62
2024/04/25 06:58:15;;;;;;;;;29.67;22.67;;;;;;;;6489031;46;8935;-62
2024/04/25 07:04:17;;;;;;;;;29.67;28.67;;;;;;;;6491490;39;8996;-63
2024/04/25 07:10:21;;;;;;;;;17.67;17.00;;;;;;;;6490465;39;8872;-63
2024/04/25 07:16:23;;;;;;;;;17.00;15.33;;;;;;;;6491045;39;8890;-62
2024/04/25 07:22:27;;;;;;;;;13.33;13.00;;;;;;;;6491896;39;8935;-63
2024/04/25 07:28:35;;;;;;;;;14.67;13.67;;;;;;;;6491238;39;8885;-64
2024/04/25 07:34:37;;;;;;;;;10.67;8.33;;;;;;;;6485865;46;8989;-63
2024/04/25 07:40:49;;;;;;;;;14.00;13.67;;;;;;;;6490940;31;9106;-65
2024/04/25 07:47:04;;;;;;;;;13.33;11.67;;;;;;;;6489401;31;9048;-66
2024/04/25 07:53:15;;;;;;;;;12.67;12.67;;;;;;;;6487193;39;8929;-65
2024/04/25 07:59:28;;;;;;;;;6.67;5.67;;;;;;;;6489269;47;8894;-65
2024/04/25 08:05:37;;;;;;;;;14.67;11.67;;;;;;;;6490035;31;9123;-64
2024/04/25 08:11:48;;;;;;;;;14.00;13.67;;;;;;;;6489031;39;8984;-65
2024/04/25 08:17:53;;;;;;;;;12.33;12.33;;;;;;;;6489989;39;8941;-66
2024/04/25 08:23:59;;;;;;;;;10.00;8.33;;;;;;;;6490752;39;9158;-66
2024/04/25 08:30:09;;;;;;;;;5.00;5.00;;;;;;;;6486629;39;9514;-64
2024/04/25 08:36:23;;;;;;;;;7.00;6.00;;;;;;;;6490871;39;9632;-64
2024/04/25 08:42:26;;;;;;;;;8.25;7.75;;;;;;;;6490098;39;8997;-66
2024/04/25 08:48:35;;;;;;;;;11.33;9.67;;;;;;;;6491504;39;8919;-65
2024/04/25 08:54:49;;;;;;;;;12.00;11.00;;;;;;;;6491112;46;8992;-67
2024/04/25 09:00:56;;;;;;;;;11.00;11.00;;;;;;;;6492851;31;8930;-65
2024/04/25 09:07:12;;;;;;;;;16.67;15.67;;;;;;;;6490820;46;8982;-65
2024/04/25 09:13:21;;;;;;;;;11.00;11.00;;;;;;;;6489888;39;9026;-65
2024/04/25 09:19:29;;;;;;;;;15.67;15.33;;;;;;;;6489775;39;8918;-62
2024/04/25 09:25:35;;;;;;;;;15.67;15.67;;;;;;;;6490154;39;9532;-67
2024/04/25 09:31:39;;;;;;;;;17.50;16.75;;;;;;;;6487610;39;8969;-65
2024/04/25 09:37:46;;;;;;;;;18.75;18.75;;;;;;;;6489990;39;8982;-65
2024/04/25 09:43:52;;;;;;;;;18.00;17.33;;;;;;;;6491286;39;9043;-63
2024/04/25 09:50:07;;;;;;;;;20.33;16.00;;;;;;;;6484009;47;9064;-65
2024/04/25 09:56:13;;;;;;;;;47.33;40.33;;;;;;;;6488211;39;9072;-64
2024/04/25 10:02:22;;;;;;;;;43.33;38.00;;;;;;;;6490100;31;9564;-65
2024/04/25 10:08:33;;;;;;;;;56.67;45.67;;;;;;;;6491044;39;8932;-65
2024/04/25 10:14:37;;;;;;;;;22.67;22.33;;;;;;;;6488469;39;8982;-64
2024/04/25 10:20:41;;;;;;;;;24.25;21.50;;;;;;;;6491681;31;8985;-64
2024/04/25 10:26:46;;;;;;;;;20.50;18.75;;;;;;;;6491389;31;8878;-64
2024/04/25 10:33:01;;;;;;;;;19.50;19.25;;;;;;;;6485158;39;8987;-65
2024/04/25 10:39:17;;;;;;;;;24.00;22.00;;;;;;;;6491066;39;8873;-64
2024/04/25 10:45:28;;;;;;;;;26.00;23.25;;;;;;;;6490207;31;9063;-61
2024/04/25 10:51:34;;;;;;;;;21.00;21.00;;;;;;;;6491382;39;8889;-64
2024/04/25 10:57:41;;;;;;;;;26.75;25.25;;;;;;;;6491221;31;8857;-62
2024/04/25 11:03:58;;;;;;;;;26.00;23.75;;;;;;;;6491015;39;8913;-65
2024/04/25 11:10:02;;;;;;;;;27.33;27.33;;;;;;;;6491131;39;8968;-66
2024/04/25 11:16:05;;;;;;;;;31.00;27.67;;;;;;;;6492072;39;8853;-64
2024/04/25 11:22:13;;;;;;;;;24.00;22.33;;;;;;;;6490895;46;8949;-64
2024/04/25 11:28:18;;;;;;;;;26.00;23.67;;;;;;;;6491612;31;9031;-64
2024/04/25 11:34:23;;;;;;;;;22.67;21.33;;;;;;;;6486499;39;8954;-64
2024/04/25 11:40:38;;;;;;;;;24.67;22.33;;;;;;;;6489750;39;8944;-64
2024/04/25 11:46:41;;;;;;;;;22.67;22.00;;;;;;;;6491073;31;8995;-65
2024/04/25 11:52:44;;;;;;;;;19.67;19.67;;;;;;;;6490370;39;8889;-63
2024/04/25 11:58:53;;;;;;;;;16.75;14.75;;;;;;;;6489290;39;8977;-65
2024/04/25 12:05:00;;;;;;;;;18.33;15.67;;;;;;;;6487057;47;9013;-64
2024/04/25 12:11:08;;;;;;;;;28.33;26.67;;;;;;;;6489080;47;9041;-66
2024/04/25 12:17:11;;;;;;;;;30.33;25.67;;;;;;;;6489913;46;9050;-65
2024/04/25 12:23:39;;;;;;;;;24.67;23.33;;;;;;;;6491069;39;8933;-64
2024/04/25 12:29:47;;;;;;;;;28.67;27.00;;;;;;;;6489702;39;9622;-65
2024/04/25 12:35:49;;;;;;;;;28.00;26.67;;;;;;;;6488187;31;8972;-64
2024/04/25 12:41:54;;;;;;;;;57.00;45.33;;;;;;;;6491983;39;8932;-66
2024/04/25 12:47:56;;;;;;;;;29.67;28.67;;;;;;;;6492373;39;9010;-66
2024/04/25 12:54:05;;;;;;;;;34.33;31.67;;;;;;;;6491586;39;8885;-67
2024/04/25 13:00:13;;;;;;;;;26.33;25.33;;;;;;;;6492889;39;8917;-64
2024/04/25 13:06:15;;;;;;;;;24.00;22.00;;;;;;;;6492381;39;9067;-66
2024/04/25 13:12:22;;;;;;;;;25.67;25.33;;;;;;;;6492372;39;8878;-64
2024/04/25 13:18:24;;;;;;;;;22.67;22.67;;;;;;;;6489362;39;8934;-64
2024/04/25 13:24:31;;;;;;;;;21.00;21.00;;;;;;;;6491740;39;8953;-64
2024/04/25 13:30:36;;;;;;;;;26.67;24.00;;;;;;;;6488095;39;8865;-64
2024/04/25 13:36:43;;;;;;;;;29.67;27.67;;;;;;;;6491897;39;9531;-66
2024/04/25 13:42:52;;;;;;;;;21.67;19.33;;;;;;;;6491876;46;9066;-62
2024/04/25 13:48:56;;;;;;;;;15.33;14.67;;;;;;;;6489663;39;8876;-66
2024/04/25 13:55:14;;;;;;;;;20.67;20.67;;;;;;;;6491156;46;8994;-63
2024/04/25 14:01:17;;;;;;;;;13.33;13.33;;;;;;;;6491552;46;8908;-63
2024/04/25 14:07:20;;;;;;;;;44.00;36.00;;;;;;;;6491376;46;9073;-66
2024/04/25 14:13:27;;;;;;;;;22.67;22.67;;;;;;;;6492081;39;8873;-64
2024/04/25 14:19:33;;;;;;;;;24.00;20.00;;;;;;;;6491921;31;8864;-64
2024/04/25 14:32:00;;;;;;;;;21.33;21.33;;;;;;;;6483212;39;9015;-64
2024/04/25 14:38:04;;;;;;;;;19.00;19.00;;;;;;;;6483068;39;8987;-64
2024/04/25 14:44:09;;;;;;;;;18.00;16.33;;;;;;;;6483010;39;9116;-63
2024/04/25 14:50:15;;;;;;;;;16.67;15.67;;;;;;;;6482077;46;8958;-64
2024/04/25 14:56:19;;;;;;;;;23.00;19.67;;;;;;;;6476901;39;8937;-63
2024/04/25 15:02:31;;;;;;;;;18.33;18.33;;;;;;;;6484147;39;9112;-65
2024/04/25 15:08:47;;;;;;;;;19.67;19.67;;;;;;;;6484352;39;8969;-64
2024/04/25 15:14:51;;;;;;;;;21.67;21.67;;;;;;;;6481142;31;8945;-64
2024/04/25 15:21:01;;;;;;;;;20.00;18.33;;;;;;;;6484548;46;8893;-63
2024/04/25 15:27:05;;;;;;;;;21.67;20.33;;;;;;;;6484621;46;8965;-64
2024/04/25 15:33:10;;;;;;;;;16.67;14.33;;;;;;;;6485337;39;8986;-64
2024/04/25 15:39:16;;;;;;;;;27.67;22.67;;;;;;;;6484643;39;9133;-63
2024/04/25 15:45:21;;;;;;;;;19.00;17.00;;;;;;;;6482928;31;9042;-64
2024/04/25 15:51:23;;;;;;;;;18.67;18.67;;;;;;;;6486848;39;9658;-64
2024/04/25 15:57:29;;;;;;;;;24.67;23.67;;;;;;;;6144562;36;10000736;-64
2024/04/25 16:03:33;;;;;;;;;24.00;23.67;;;;;;;;6490114;39;9015;-64
2024/04/25 16:09:35;;;;;;;;;21.33;20.00;;;;;;;;6492719;39;8920;-63
2024/04/25 16:15:36;;;;;;;;;23.00;20.67;;;;;;;;6491251;46;9102;-65
2024/04/25 16:21:37;;;;;;;;;27.33;27.33;;;;;;;;6493131;39;8893;-64
2024/04/25 16:27:40;;;;;;;;;17.67;16.33;;;;;;;;6493156;39;8991;-64
2024/04/25 16:33:44;;;;;;;;;23.00;21.33;;;;;;;;6492080;39;8911;-64
2024/04/25 16:39:47;;;;;;;;;15.33;14.33;;;;;;;;6491757;46;8878;-64
2024/04/25 16:45:52;;;;;;;;;17.00;16.00;;;;;;;;6493400;31;9068;-64
2024/04/25 16:51:55;;;;;;;;;23.67;22.67;;;;;;;;6492843;39;8909;-63
2024/04/25 16:58:02;;;;;;;;;13.00;13.00;;;;;;;;6493258;31;8895;-63
2024/04/25 17:04:03;;;;;;;;;16.33;14.33;;;;;;;;6491889;39;8997;-64
2024/04/25 17:10:07;;;;;;;;;15.67;14.00;;;;;;;;6492533;39;9610;-64
2024/04/25 17:16:11;;;;;;;;;12.00;10.67;;;;;;;;6491994;39;8976;-64
2024/04/25 17:22:15;;;;;;;;;18.67;17.67;;;;;;;;6491134;31;9037;-63
2024/04/25 17:28:19;;;;;;;;;16.33;14.33;;;;;;;;6491175;46;8909;-63
2024/04/25 17:34:23;;;;;;;;;23.00;23.00;;;;;;;;6492763;39;9022;-66
2024/04/25 17:40:28;;;;;;;;;19.00;16.33;;;;;;;;6492179;46;9024;-62
2024/04/25 17:46:29;;;;;;;;;16.33;16.33;;;;;;;;6492046;39;8991;-63
2024/04/25 17:52:33;;;;;;;;;20.00;16.00;;;;;;;;6491693;46;8995;-63
2024/04/25 17:58:38;;;;;;;;;24.33;18.00;;;;;;;;6492005;39;8927;-64
2024/04/25 18:04:41;;;;;;;;;17.00;17.00;;;;;;;;6491889;31;8965;-63
2024/04/25 18:10:44;;;;;;;;;18.67;18.00;;;;;;;;6492648;39;8912;-63
2024/04/25 18:16:45;;;;;;;;;10.00;8.50;;;;;;;;6492053;39;8906;-63
2024/04/25 18:22:50;;;;;;;;;18.67;16.00;;;;;;;;6130823;36;10000778;-62
2024/04/25 18:28:53;;;;;;;;;17.00;17.00;;;;;;;;6491278;31;8917;-63
2024/04/25 18:34:54;;;;;;;;;14.67;13.00;;;;;;;;6491386;39;9006;-66
2024/04/25 18:40:59;;;;;;;;;9.00;7.67;;;;;;;;6491369;39;9523;-71
2024/04/25 18:47:05;;;;;;;;;12.67;10.00;;;;;;;;6491082;39;8995;-71
2024/04/25 18:53:08;;;;;;;;;8.33;8.00;;;;;;;;6490821;39;9033;-70
2024/04/25 18:59:10;;;;;;;;;9.33;9.00;;;;;;;;6491685;31;8885;-70
2024/04/25 19:05:21;;;;;;;;;11.67;10.00;;;;;;;;6493079;31;8942;-70
2024/04/25 19:11:26;;;;;;;;;9.67;9.67;;;;;;;;6491982;31;8865;-72
2024/04/25 19:17:32;;;;;;;;;7.67;7.67;;;;;;;;6491528;46;8856;-71
2024/04/25 19:23:34;;;;;;;;;7.67;7.00;;;;;;;;6491509;46;8966;-70
2024/04/25 19:29:41;;;;;;;;;6.00;6.00;;;;;;;;6491041;39;8908;-72
2024/04/25 19:35:48;;;;;;;;;6.00;6.00;;;;;;;;6490658;46;8893;-71
2024/04/25 19:41:56;;;;;;;;;8.00;7.00;;;;;;;;6491696;39;8864;-71
2024/04/25 19:47:57;;;;;;;;;6.33;6.33;;;;;;;;6491832;39;9067;-72
2024/04/25 19:53:59;;;;;;;;;4.00;4.00;;;;;;;;6490235;47;8871;-71
2024/04/25 20:00:03;;;;;;;;;5.33;5.33;;;;;;;;6491059;47;8916;-72
2024/04/25 20:06:14;;;;;;;;;5.50;5.50;;;;;;;;6491158;39;9085;-71
2024/04/25 20:12:18;;;;;;;;;9.00;9.00;;;;;;;;6491403;39;9000;-72
2024/04/25 20:24:48;;;;;;;;;6.00;6.00;;;;;;;;6491104;47;8925;-72
2024/04/25 20:30:51;;;;;;;;;6.33;6.33;;;;;;;;6491539;31;9017;-71
2024/04/25 20:37:03;;;;;;;;;5.33;5.33;;;;;;;;6491974;39;8970;-72
2024/04/25 20:43:06;;;;;;;;;7.67;7.00;;;;;;;;6492412;46;8954;-72
2024/04/25 20:49:12;;;;;;;;;8.00;8.00;;;;;;;;6492749;46;8888;-71
2024/04/25 20:55:15;;;;;;;;;10.67;10.33;;;;;;;;6496854;39;8957;-71
2024/04/25 21:01:25;;;;;;;;;10.25;10.00;;;;;;;;6507344;46;8938;-73
2024/04/25 21:07:31;;;;;;;;;11.50;10.00;;;;;;;;6501186;36;151164;-72
2024/04/25 21:13:39;;;;;;;;;10.25;9.00;;;;;;;;6493258;31;8996;-72
2024/04/25 21:19:43;;;;;;;;;9.33;9.00;;;;;;;;6493148;31;8872;-72
2024/04/25 21:26:07;;;;;;;;;2.50;2.50;;;;;;;;3475001;36;10010960;-72
2024/04/25 21:32:09;;;;;;;;;8.00;4.00;;;;;;;;5953904;46;10000032;-71
2024/04/25 21:38:12;;;;;;;;;8.00;8.00;;;;;;;;6492864;46;8888;-71
2024/04/25 21:44:16;;;;;;;;;6.33;6.33;;;;;;;;6488847;39;8936;-72
2024/04/25 21:50:21;;;;;;;;;8.00;8.00;;;;;;;;6489721;39;8939;-72
2024/04/25 21:56:25;;;;;;;;;7.00;7.00;;;;;;;;6490675;31;8885;-70
2024/04/25 22:02:30;;;;;;;;;8.00;8.00;;;;;;;;6492793;31;9634;-72
2024/04/25 22:08:31;;;;;;;;;8.00;6.00;;;;;;;;6490991;46;9093;-73
2024/04/25 22:14:41;;;;;;;;;9.00;8.00;;;;;;;;6491310;39;9645;-72
2024/04/25 22:20:46;;;;;;;;;11.00;9.00;;;;;;;;6491654;39;8939;-71
2024/04/25 22:26:55;;;;;;;;;14.00;12.75;;;;;;;;6490632;39;9666;-70
2024/04/25 22:33:06;;;;;;;;;10.75;9.50;;;;;;;;6491981;39;8896;-71
2024/04/25 22:39:31;;;;;;;;;13.50;13.50;;;;;;;;6490500;39;9058;-72
2024/04/25 22:45:45;;;;;;;;;16.00;14.00;;;;;;;;6491147;39;8954;-71
2024/04/25 22:51:48;;;;;;;;;18.00;17.00;;;;;;;;6491601;39;8896;-71
2024/04/25 22:57:57;;;;;;;;;16.25;15.25;;;;;;;;6491357;39;8884;-70
2024/04/25 23:04:05;;;;;;;;;17.25;17.25;;;;;;;;6491202;39;9114;-72
2024/04/25 23:10:10;;;;;;;;;18.25;17.75;;;;;;;;6490229;39;8908;-71
2024/04/25 23:16:14;;;;;;;;;19.25;19.25;;;;;;;;6490667;39;8967;-71
2024/04/25 23:22:17;;;;;;;;;19.25;18.00;;;;;;;;6490784;39;8905;-70
2024/04/25 23:28:20;;;;;;;;;20.00;17.00;;;;;;;;6490474;39;8959;-70
2024/04/25 23:34:22;;;;;;;;;18.00;18.00;;;;;;;;6490762;39;8865;-70
2024/04/25 23:40:24;;;;;;;;;18.25;17.00;;;;;;;;6490748;39;8916;-71
2024/04/25 23:46:31;;;;;;;;;21.75;16.50;;;;;;;;6490209;47;8924;-71
2024/04/25 23:52:37;;;;;;;;;19.50;19.25;;;;;;;;6490963;39;8852;-71
2024/04/25 23:58:44;;;;;;;;;18.00;18.00;;;;;;;;6490180;47;8927;-71
